createdAt,value
2018-03-02T00:01:28.548Z,45.65
2018-03-02T00:03:56.194Z,43.47
2018-03-02T00:06:23.786Z,47.27
2018-03-02T00:08:51.634Z,43.23
2018-03-02T00:11:19.228Z,45.27
2018-03-02T00:13:46.790Z,42.57
2018-03-02T00:16:14.649Z,44.10
2018-03-02T00:18:42.254Z,41.80
2018-03-02T00:21:09.827Z,56.43
2018-03-02T00:23:37.392Z,56.10
2018-03-02T00:26:04.996Z,69.22
2018-03-02T00:28:32.694Z,63.45
2018-03-02T00:31:00.262Z,63.77
2018-03-02T00:33:28.486Z,69.90
2018-03-02T00:35:56.371Z,53.17
2018-03-02T00:38:24.107Z,44.70
2018-03-02T00:40:51.708Z,39.67
2018-03-02T00:43:19.366Z,38.03
2018-03-02T00:45:49.775Z,39.60
2018-03-02T00:48:17.810Z,39.27
2018-03-02T00:50:45.372Z,40.17
2018-03-02T00:53:12.950Z,42.33
2018-03-02T00:55:40.610Z,42.50
2018-03-02T00:58:08.170Z,44.60
2018-03-02T01:00:35.728Z,45.85
2018-03-02T01:03:03.323Z,44.20
2018-03-02T01:05:30.909Z,40.17
2018-03-02T01:07:58.653Z,41.73
2018-03-02T01:10:26.272Z,39.33
2018-03-02T01:12:53.826Z,39.28
2018-03-02T01:15:21.432Z,42.67
2018-03-02T01:17:50.050Z,38.27
2018-03-02T01:20:17.620Z,40.47
2018-03-02T01:22:45.187Z,41.10
2018-03-02T01:25:12.792Z,36.70
2018-03-02T01:27:40.362Z,36.83
2018-03-02T01:30:08.000Z,38.37
2018-03-02T01:32:35.597Z,36.80
2018-03-02T01:35:03.154Z,38.80
2018-03-02T01:37:30.719Z,39.93
2018-03-02T01:39:58.358Z,41.07
2018-03-02T01:42:25.955Z,39.80
2018-03-02T01:44:53.580Z,39.80
2018-03-02T01:47:21.243Z,39.07
2018-03-02T01:49:48.907Z,36.87
2018-03-02T01:52:16.479Z,37.17
2018-03-02T01:54:44.066Z,37.17
2018-03-02T01:57:11.624Z,33.00
2018-03-02T01:59:39.191Z,35.50
2018-03-02T02:02:06.801Z,38.30
2018-03-02T02:04:34.370Z,39.73
2018-03-02T02:07:01.939Z,37.47
2018-03-02T02:09:29.643Z,36.13
2018-03-02T02:11:57.280Z,30.90
2018-03-02T02:14:24.849Z,21.40
2018-03-02T02:16:52.454Z,28.53
2018-03-02T02:19:20.068Z,38.03
2018-03-02T02:21:47.625Z,36.47
2018-03-02T02:24:15.229Z,34.93
2018-03-02T02:26:42.794Z,38.17
2018-03-02T02:29:10.361Z,38.20
2018-03-02T02:31:37.954Z,35.93
2018-03-02T02:34:05.626Z,37.33
2018-03-02T02:36:33.182Z,35.27
2018-03-02T02:39:00.783Z,40.23
2018-03-02T02:41:28.361Z,38.43
2018-03-02T02:43:55.990Z,38.73
2018-03-02T02:46:23.588Z,35.97
2018-03-02T02:48:51.146Z,37.33
2018-03-02T02:51:18.722Z,36.03
2018-03-02T02:53:46.408Z,40.03
2018-03-02T02:56:13.968Z,37.40
2018-03-02T02:58:41.588Z,41.27
2018-03-02T03:01:09.196Z,39.47
2018-03-02T03:03:36.762Z,38.77
2018-03-02T03:06:04.323Z,37.63
2018-03-02T03:08:31.923Z,42.33
2018-03-02T03:10:59.490Z,37.40
2018-03-02T03:13:27.169Z,38.67
2018-03-02T03:15:54.788Z,42.30
2018-03-02T03:18:22.363Z,27.10
2018-03-02T03:20:49.945Z,41.07
2018-03-02T03:23:17.531Z,44.97
2018-03-02T03:25:45.100Z,39.13
2018-03-02T03:28:12.667Z,27.37
2018-03-02T03:30:40.254Z,42.57
2018-03-02T03:33:07.813Z,44.70
2018-03-02T03:35:35.385Z,43.60
2018-03-02T03:38:02.987Z,41.70
2018-03-02T03:40:30.552Z,41.53
2018-03-02T03:42:58.184Z,43.90
2018-03-02T03:45:25.785Z,38.40
2018-03-02T03:47:53.346Z,40.40
2018-03-02T03:50:21.059Z,34.97
2018-03-02T03:52:48.728Z,33.50
2018-03-02T03:55:16.283Z,37.93
2018-03-02T03:57:43.842Z,36.07
2018-03-02T04:00:11.461Z,37.27
2018-03-02T04:02:39.027Z,35.43
2018-03-02T04:05:06.652Z,37.53
2018-03-02T04:07:34.309Z,35.60
2018-03-02T04:10:01.845Z,38.17
2018-03-02T04:12:29.409Z,37.33
2018-03-02T04:14:57.021Z,38.37
2018-03-02T04:17:24.588Z,37.43
2018-03-02T04:19:52.158Z,38.47
2018-03-02T04:22:19.765Z,38.47
2018-03-02T04:24:47.318Z,40.10
2018-03-02T04:27:14.887Z,41.13
2018-03-02T04:29:42.486Z,48.40
2018-03-02T04:32:10.057Z,49.73
2018-03-02T04:34:37.631Z,43.67
2018-03-02T04:37:05.238Z,39.37
2018-03-02T04:39:32.827Z,39.40
2018-03-02T04:42:00.390Z,43.10
2018-03-02T04:44:28.034Z,40.50
2018-03-02T04:46:55.606Z,37.17
2018-03-02T04:49:23.175Z,40.60
2018-03-02T04:51:50.782Z,40.87
2018-03-02T04:54:18.351Z,45.03
2018-03-02T04:56:45.902Z,40.17
2018-03-02T04:59:13.498Z,42.47
2018-03-02T05:01:41.136Z,42.67
2018-03-02T05:04:08.698Z,42.50
2018-03-02T05:06:36.399Z,50.95
2018-03-02T05:09:04.129Z,61.17
2018-03-02T05:11:31.866Z,53.67
2018-03-02T05:13:59.470Z,49.50
2018-03-02T05:16:27.029Z,51.80
2018-03-02T05:18:54.594Z,53.30
2018-03-02T05:21:22.200Z,56.53
2018-03-02T05:23:49.800Z,54.20
2018-03-02T05:26:17.363Z,48.37
2018-03-02T05:28:45.089Z,51.20
2018-03-02T05:31:12.666Z,48.23
2018-03-02T05:33:40.223Z,47.77
2018-03-02T05:36:07.860Z,46.07
2018-03-02T05:38:35.435Z,71.70
2018-03-02T05:41:02.997Z,51.37
2018-03-02T05:43:30.599Z,46.83
2018-03-02T05:45:58.173Z,51.63
2018-03-02T05:48:25.746Z,45.27
2018-03-02T05:50:53.345Z,44.23
2018-03-02T05:53:20.910Z,44.23
2018-03-02T05:55:48.466Z,45.27
2018-03-02T05:58:16.062Z,42.87
2018-03-02T06:00:43.664Z,44.73
2018-03-02T06:03:11.226Z,38.80
2018-03-02T06:05:38.851Z,45.10
2018-03-02T06:08:06.410Z,46.83
2018-03-02T06:10:33.988Z,48.07
2018-03-02T06:13:01.588Z,46.87
2018-03-02T06:15:29.144Z,47.03
2018-03-02T06:17:56.721Z,47.83
2018-03-02T06:20:24.318Z,55.17
2018-03-02T06:22:51.885Z,43.23
2018-03-02T06:25:19.480Z,47.83
2018-03-02T06:27:47.164Z,51.47
2018-03-02T06:30:14.799Z,41.77
2018-03-02T06:32:42.368Z,43.17
2018-03-02T06:35:09.973Z,44.47
2018-03-02T06:37:37.541Z,42.37
2018-03-02T06:40:05.174Z,44.17
2018-03-02T06:42:32.796Z,47.93
2018-03-02T06:45:00.362Z,45.77
2018-03-02T06:47:27.939Z,48.63
2018-03-02T06:49:56.454Z,56.87
2018-03-02T06:52:24.023Z,58.30
2018-03-02T06:54:51.599Z,71.60
2018-03-02T06:57:19.195Z,64.87
2018-03-02T06:59:46.888Z,55.43
2018-03-02T07:02:14.464Z,57.37
2018-03-02T07:04:42.095Z,52.73
2018-03-02T07:07:09.727Z,55.50
2018-03-02T07:09:37.294Z,49.30
2018-03-02T07:12:04.899Z,52.33
2018-03-02T07:14:32.477Z,54.50
2018-03-02T07:17:00.063Z,50.57
2018-03-02T07:19:27.766Z,56.03
2018-03-02T07:21:55.336Z,50.20
2018-03-02T07:24:22.908Z,59.90
2018-03-02T07:26:50.508Z,54.70
2018-03-02T07:29:18.090Z,50.13
2018-03-02T07:31:45.666Z,53.00
2018-03-02T07:34:13.266Z,61.57
2018-03-02T07:36:40.836Z,58.50
2018-03-02T07:39:08.410Z,66.00
2018-03-02T07:41:36.017Z,68.63
2018-03-02T07:44:03.592Z,64.83
2018-03-02T07:46:31.164Z,62.00
2018-03-02T07:48:58.758Z,53.27
2018-03-02T07:51:26.326Z,53.93
2018-03-02T07:53:54.005Z,54.17
2018-03-02T07:56:21.601Z,49.07
2018-03-02T07:58:49.174Z,57.60
2018-03-02T08:01:16.751Z,60.20
2018-03-02T08:03:44.360Z,65.20
2018-03-02T08:06:11.925Z,59.13
2018-03-02T08:08:39.637Z,50.23
2018-03-02T08:11:07.247Z,64.60
2018-03-02T08:13:34.798Z,52.33
2018-03-02T08:16:02.564Z,51.50
2018-03-02T08:18:30.167Z,47.30
2018-03-02T08:20:57.740Z,52.40
2018-03-02T08:23:25.309Z,46.67
2018-03-02T08:25:53.082Z,53.63
2018-03-02T08:28:20.860Z,48.80
2018-03-02T08:30:48.487Z,54.47
2018-03-02T08:33:16.094Z,48.40
2018-03-02T08:35:43.666Z,46.30
2018-03-02T08:38:11.219Z,49.30
2018-03-02T08:40:38.810Z,54.10
2018-03-02T08:43:06.449Z,47.47
2018-03-02T08:45:34.009Z,46.10
2018-03-02T08:48:01.619Z,47.13
2018-03-02T08:50:29.172Z,45.27
2018-03-02T08:52:56.736Z,45.60
2018-03-02T08:55:24.343Z,47.67
2018-03-02T08:57:51.915Z,46.77
2018-03-02T09:00:19.660Z,53.87
2018-03-02T09:02:47.279Z,57.13
2018-03-02T09:05:14.861Z,54.27
2018-03-02T09:07:42.459Z,80.97
2018-03-02T09:10:10.067Z,55.50
2018-03-02T09:12:37.629Z,54.67
2018-03-02T09:15:05.215Z,52.67
2018-03-02T09:17:32.819Z,54.97
2018-03-02T09:20:00.414Z,48.90
2018-03-02T09:22:27.985Z,43.63
2018-03-02T09:24:55.603Z,42.50
2018-03-02T09:27:23.323Z,49.87
2018-03-02T09:29:50.891Z,50.60
2018-03-02T09:32:18.496Z,40.67
2018-03-02T09:34:46.154Z,50.63
2018-03-02T09:37:13.711Z,49.30
2018-03-02T09:39:41.321Z,49.23
2018-03-02T09:42:09.121Z,53.27
2018-03-02T09:44:36.678Z,59.10
2018-03-02T09:47:04.274Z,62.90
2018-03-02T09:49:32.085Z,60.60
2018-03-02T09:51:59.764Z,68.50
2018-03-02T09:54:27.407Z,55.33
2018-03-02T09:56:55.088Z,74.07
2018-03-02T09:59:22.741Z,54.80
2018-03-02T10:01:50.358Z,58.13
2018-03-02T10:04:17.934Z,51.60
2018-03-02T10:06:45.573Z,50.87
2018-03-02T10:09:13.149Z,47.27
2018-03-02T10:11:40.719Z,49.63
2018-03-02T10:14:08.301Z,52.20
2018-03-02T10:16:35.902Z,48.20
2018-03-02T10:19:03.507Z,50.57
2018-03-02T10:21:31.330Z,45.93
2018-03-02T10:23:58.957Z,53.53
2018-03-02T10:26:26.516Z,44.77
2018-03-02T10:28:54.063Z,40.13
2018-03-02T10:31:21.745Z,59.23
2018-03-02T10:33:49.345Z,44.17
2018-03-02T10:36:17.066Z,47.97
2018-03-02T10:38:44.675Z,41.53
2018-03-02T10:41:12.391Z,48.70
2018-03-02T10:43:40.053Z,44.37
2018-03-02T10:46:07.689Z,58.27
2018-03-02T10:48:35.357Z,57.07
2018-03-02T10:51:02.949Z,56.10
2018-03-02T10:53:30.545Z,57.17
2018-03-02T10:55:58.106Z,40.50
2018-03-02T10:58:25.711Z,47.20
2018-03-02T11:00:53.486Z,41.00
2018-03-02T11:03:22.971Z,54.50
2018-03-02T11:05:50.545Z,51.17
2018-03-02T11:08:18.317Z,45.67
2018-03-02T11:10:45.932Z,38.97
2018-03-02T11:13:13.635Z,43.73
2018-03-02T11:15:41.258Z,42.40
2018-03-02T11:18:08.969Z,41.53
2018-03-02T11:20:36.810Z,44.10
2018-03-02T11:23:04.490Z,41.13
2018-03-02T11:25:32.047Z,41.27
2018-03-02T11:27:59.602Z,44.53
2018-03-02T11:30:27.226Z,29.50
2018-03-02T11:32:54.786Z,41.20
2018-03-02T11:35:22.373Z,42.10
2018-03-02T11:37:49.961Z,45.60
2018-03-02T11:40:17.529Z,39.63
2018-03-02T11:42:45.084Z,41.33
2018-03-02T11:45:12.840Z,37.93
2018-03-02T11:47:40.401Z,43.00
2018-03-02T11:50:07.950Z,42.83
2018-03-02T11:52:35.556Z,49.10
2018-03-02T11:55:03.121Z,41.73
2018-03-02T11:57:30.751Z,51.57
2018-03-02T11:59:58.336Z,51.87
2018-03-02T12:02:25.923Z,42.80
2018-03-02T12:04:53.488Z,56.43
2018-03-02T12:07:21.289Z,61.97
2018-03-02T12:09:50.169Z,57.63
2018-03-02T12:12:17.818Z,45.90
2018-03-02T12:14:47.271Z,37.87
2018-03-02T12:17:14.963Z,50.77
2018-03-02T12:19:42.509Z,49.47
2018-03-02T12:22:10.099Z,41.80
2018-03-02T12:24:37.658Z,38.07
2018-03-02T12:27:05.206Z,61.23
2018-03-02T12:29:32.877Z,39.87
2018-03-02T12:32:00.427Z,80.17
2018-03-02T12:34:27.992Z,61.27
2018-03-02T12:36:55.593Z,44.23
2018-03-02T12:39:23.151Z,49.90
2018-03-02T12:41:50.783Z,43.23
2018-03-02T12:44:18.362Z,69.30
2018-03-02T12:46:45.899Z,51.23
2018-03-02T12:49:13.472Z,66.10
2018-03-02T12:51:41.158Z,57.20
2018-03-02T12:54:08.732Z,51.97
2018-03-02T12:56:36.330Z,48.83
2018-03-02T12:59:04.041Z,57.57
2018-03-02T13:01:31.643Z,51.07
2018-03-02T13:03:59.195Z,79.53
2018-03-02T13:06:27.020Z,82.23
2018-03-02T13:08:54.565Z,66.73
2018-03-02T13:11:22.351Z,73.33
2018-03-02T13:13:50.515Z,78.00
2018-03-02T13:16:18.113Z,54.87
2018-03-02T13:18:45.736Z,59.47
2018-03-02T13:21:13.344Z,62.50
2018-03-02T13:23:40.899Z,54.27
2018-03-02T13:26:08.490Z,77.93
2018-03-02T13:28:51.022Z,59.17
2018-03-02T13:31:18.599Z,50.57
2018-03-02T13:33:58.051Z,51.63
2018-03-02T13:36:25.598Z,60.03
2018-03-02T13:38:53.140Z,55.57
2018-03-02T13:41:32.535Z,75.10
2018-03-02T13:44:00.239Z,67.57
2018-03-02T13:46:28.103Z,54.47
2018-03-02T13:49:07.575Z,67.63
2018-03-02T13:51:35.514Z,53.97
2018-03-02T13:54:03.183Z,57.70
2018-03-02T13:56:42.652Z,59.90
2018-03-02T13:59:10.259Z,59.17
2018-03-02T14:01:37.826Z,56.17
2018-03-02T14:04:17.362Z,55.40
2018-03-02T14:06:45.057Z,68.53
2018-03-02T14:09:13.439Z,63.67
2018-03-02T14:11:41.042Z,81.37
2018-03-02T14:14:08.595Z,74.47
2018-03-02T14:16:36.147Z,66.32
2018-03-02T14:19:03.924Z,66.13
2018-03-02T14:21:31.862Z,62.37
2018-03-02T14:24:00.875Z,52.60
2018-03-02T14:26:31.034Z,76.47
2018-03-02T14:29:00.662Z,70.20
2018-03-02T14:31:29.958Z,73.87
2018-03-02T14:34:00.078Z,84.00
2018-03-02T14:36:29.822Z,66.20
2018-03-02T14:38:59.800Z,69.80
2018-03-02T14:41:29.721Z,68.67
2018-03-02T14:43:58.877Z,75.53
2018-03-02T14:46:28.682Z,65.50
2018-03-02T14:48:58.583Z,68.17
2018-03-02T14:51:28.218Z,77.63
2018-03-02T14:53:57.981Z,73.47
2018-03-02T14:56:27.613Z,79.23
2018-03-02T14:58:56.696Z,71.70
2018-03-02T15:01:26.557Z,70.17
2018-03-02T15:03:56.032Z,65.87
2018-03-02T15:06:25.377Z,91.23
2018-03-02T15:08:54.839Z,74.53
2018-03-02T15:11:24.321Z,96.47
2018-03-02T15:13:53.884Z,103.77
2018-03-02T15:16:23.482Z,104.60
2018-03-02T15:18:53.205Z,97.63
2018-03-02T15:21:23.027Z,87.03
2018-03-02T15:23:52.576Z,85.03
2018-03-02T15:26:22.008Z,86.73
2018-03-02T15:28:51.898Z,91.30
2018-03-02T15:31:22.014Z,88.47
2018-03-02T15:33:51.955Z,92.40
2018-03-02T15:36:21.556Z,113.80
2018-03-02T15:38:51.317Z,88.33
2018-03-02T15:41:21.202Z,94.83
2018-03-02T15:43:50.632Z,90.67
2018-03-02T15:46:20.991Z,85.90
2018-03-02T15:48:50.911Z,101.07
2018-03-02T15:51:20.724Z,107.23
2018-03-02T15:53:48.487Z,83.17
2018-03-02T15:56:16.072Z,85.70
2018-03-02T15:58:43.649Z,104.20
2018-03-02T16:01:11.258Z,105.13
2018-03-02T16:03:38.952Z,118.40
2018-03-02T16:06:06.530Z,111.40
2018-03-02T16:08:34.239Z,86.70
2018-03-02T16:11:01.830Z,78.77
2018-03-02T16:13:29.401Z,94.00
2018-03-02T16:15:56.955Z,80.67
2018-03-02T16:18:24.584Z,82.13
2018-03-02T16:20:52.138Z,76.00
2018-03-02T16:23:20.003Z,83.43
2018-03-02T16:25:47.833Z,108.57
2018-03-02T16:28:15.465Z,80.53
2018-03-02T16:30:43.198Z,109.23
2018-03-02T16:33:10.840Z,107.03
2018-03-02T16:35:38.397Z,87.57
2018-03-02T16:38:05.955Z,98.97
2018-03-02T16:40:34.665Z,108.37
2018-03-02T16:43:02.237Z,103.97
2018-03-02T16:45:29.978Z,103.57
2018-03-02T16:47:57.570Z,95.13
2018-03-02T16:50:25.211Z,91.77
2018-03-02T16:52:52.801Z,84.60
2018-03-02T16:55:20.455Z,125.10
2018-03-02T16:57:48.927Z,85.90
2018-03-02T17:00:16.564Z,89.43
2018-03-02T17:02:44.162Z,86.00
2018-03-02T17:05:11.708Z,83.67
2018-03-02T17:07:39.256Z,90.40
2018-03-02T17:10:06.863Z,89.63
2018-03-02T17:12:34.425Z,86.80
2018-03-02T17:15:01.975Z,62.03
2018-03-02T17:17:29.554Z,66.70
2018-03-02T17:19:57.100Z,81.03
2018-03-02T17:22:24.688Z,69.70
2018-03-02T17:24:52.524Z,73.30
2018-03-02T17:27:20.113Z,112.90
2018-03-02T17:29:47.692Z,99.07
2018-03-02T17:32:15.622Z,89.60
2018-03-02T17:34:48.847Z,126.17
2018-03-02T17:37:16.577Z,89.20
2018-03-02T17:39:44.122Z,81.90
2018-03-02T17:42:11.694Z,100.60
2018-03-02T17:44:39.554Z,99.57
2018-03-02T17:47:07.255Z,104.97
2018-03-02T17:49:34.805Z,117.57
2018-03-02T17:52:02.409Z,87.73
2018-03-02T17:54:29.972Z,92.87
2018-03-02T17:56:57.698Z,85.17
2018-03-02T17:59:25.355Z,81.40
2018-03-02T18:01:52.931Z,74.67
2018-03-02T18:04:20.536Z,154.67
2018-03-02T18:06:48.133Z,117.33
2018-03-02T18:09:15.713Z,97.10
2018-03-02T18:11:43.287Z,93.03
2018-03-02T18:14:10.923Z,150.83
2018-03-02T18:16:38.614Z,88.33
2018-03-02T18:19:06.194Z,72.53
2018-03-02T18:21:33.809Z,71.70
2018-03-02T18:24:01.384Z,70.83
2018-03-02T18:26:28.936Z,89.93
2018-03-02T18:28:56.527Z,94.40
2018-03-02T18:31:24.105Z,88.90
2018-03-02T18:33:51.659Z,103.67
2018-03-02T18:36:20.083Z,94.20
2018-03-02T18:38:47.963Z,90.47
2018-03-02T18:41:15.579Z,111.63
2018-03-02T18:43:43.546Z,128.40
2018-03-02T18:46:11.103Z,86.20
2018-03-02T18:48:38.829Z,92.73
2018-03-02T18:51:06.502Z,103.17
2018-03-02T18:53:34.058Z,109.73
2018-03-02T18:56:01.604Z,104.53
2018-03-02T18:58:29.192Z,90.00
2018-03-02T19:00:56.732Z,90.27
2018-03-02T19:03:24.342Z,88.97
2018-03-02T19:05:51.900Z,90.27
2018-03-02T19:08:19.456Z,104.53
2018-03-02T19:10:47.000Z,85.60
2018-03-02T19:13:14.591Z,74.90
2018-03-02T19:15:42.148Z,72.63
2018-03-02T19:18:09.695Z,72.90
2018-03-02T19:20:37.301Z,70.70
2018-03-02T19:23:04.869Z,66.77
2018-03-02T19:25:32.487Z,73.47
2018-03-02T19:28:00.202Z,72.03
2018-03-02T19:30:27.872Z,80.50
2018-03-02T19:32:55.492Z,84.03
2018-03-02T19:35:23.228Z,85.57
2018-03-02T19:37:51.267Z,85.97
2018-03-02T19:40:19.188Z,85.37
2018-03-02T19:42:47.068Z,79.90
2018-03-02T19:45:15.055Z,86.00
2018-03-02T19:47:43.123Z,78.83
2018-03-02T19:50:10.864Z,75.40
2018-03-02T19:52:38.830Z,96.07
2018-03-02T19:55:06.821Z,88.50
2018-03-02T19:57:34.716Z,104.07
2018-03-02T20:00:02.784Z,89.57
2018-03-02T20:02:30.848Z,87.00
2018-03-02T20:04:58.448Z,87.47
2018-03-02T20:07:26.162Z,92.13
2018-03-02T20:09:54.052Z,85.90
2018-03-02T20:12:21.888Z,71.60
2018-03-02T20:14:49.787Z,70.27
2018-03-02T20:17:17.637Z,67.90
2018-03-02T20:19:45.486Z,66.27
2018-03-02T20:22:13.051Z,73.47
2018-03-02T20:24:40.663Z,70.20
2018-03-02T20:27:08.313Z,83.43
2018-03-02T20:29:35.862Z,71.23
2018-03-02T20:32:03.443Z,71.67
2018-03-02T20:34:30.999Z,74.37
2018-03-02T20:36:58.627Z,77.27
2018-03-02T20:39:26.208Z,78.70
2018-03-02T20:41:53.762Z,85.13
2018-03-02T20:44:21.369Z,80.67
2018-03-02T20:46:48.981Z,83.07
2018-03-02T20:49:16.521Z,86.00
2018-03-02T20:51:44.059Z,78.87
2018-03-02T20:54:11.670Z,72.50
2018-03-02T20:56:39.213Z,77.17
2018-03-02T20:59:06.766Z,85.90
2018-03-02T21:01:34.345Z,89.00
2018-03-02T21:04:01.888Z,92.27
2018-03-02T21:06:29.447Z,92.53
2018-03-02T21:08:57.044Z,87.10
2018-03-02T21:11:24.599Z,85.03
2018-03-02T21:13:52.151Z,85.43
2018-03-02T21:16:19.727Z,86.27
2018-03-02T21:18:47.271Z,89.13
2018-03-02T21:21:14.823Z,80.77
2018-03-02T21:23:42.418Z,83.23
2018-03-02T21:26:09.969Z,81.70
2018-03-02T21:28:37.601Z,102.50
2018-03-02T21:31:05.189Z,103.57
2018-03-02T21:33:32.753Z,103.53
2018-03-02T21:36:00.300Z,97.43
2018-03-02T21:38:27.872Z,88.93
2018-03-02T21:40:55.425Z,97.60
2018-03-02T21:43:22.967Z,97.03
2018-03-02T21:45:50.540Z,99.77
2018-03-02T21:48:18.094Z,95.43
2018-03-02T21:50:45.649Z,98.93
2018-03-02T21:53:13.236Z,95.60
2018-03-02T21:55:40.781Z,104.90
2018-03-02T21:58:08.363Z,93.97
2018-03-02T22:00:35.952Z,90.03
2018-03-02T22:03:03.564Z,94.30
2018-03-02T22:05:31.105Z,89.13
2018-03-02T22:07:58.681Z,85.20
2018-03-02T22:10:26.243Z,98.10
2018-03-02T22:12:53.810Z,95.63
2018-03-02T22:15:21.545Z,93.90
2018-03-02T22:17:49.097Z,94.97
2018-03-02T22:20:16.651Z,100.27
2018-03-02T22:22:44.234Z,98.93
2018-03-02T22:25:11.787Z,95.83
2018-03-02T22:27:39.348Z,97.37
2018-03-02T22:30:06.926Z,94.13
2018-03-02T22:32:34.472Z,97.60
2018-03-02T22:35:02.029Z,107.47
2018-03-02T22:37:29.654Z,89.70
2018-03-02T22:39:57.206Z,89.17
2018-03-02T22:42:24.763Z,95.13
2018-03-02T22:44:52.356Z,82.80
2018-03-02T22:47:19.906Z,91.90
2018-03-02T22:49:47.451Z,80.70
2018-03-02T22:52:15.055Z,92.20
2018-03-02T22:54:42.693Z,99.13
2018-03-02T22:57:10.242Z,115.40
2018-03-02T22:59:37.824Z,132.37
2018-03-02T23:02:05.381Z,134.13
2018-03-02T23:04:32.943Z,114.33
2018-03-02T23:07:00.539Z,104.70
2018-03-02T23:09:28.086Z,99.87
2018-03-02T23:11:55.645Z,106.97
2018-03-02T23:14:23.239Z,98.63
2018-03-02T23:16:50.791Z,85.03
2018-03-02T23:19:18.361Z,82.07
2018-03-02T23:21:45.952Z,88.33
2018-03-02T23:24:13.510Z,113.23
2018-03-02T23:26:41.062Z,115.27
2018-03-02T23:29:08.647Z,110.50
2018-03-02T23:31:36.211Z,115.33
2018-03-02T23:34:03.772Z,116.53
2018-03-02T23:36:31.349Z,124.23
2018-03-02T23:38:58.901Z,114.87
2018-03-02T23:41:26.458Z,112.90
2018-03-02T23:43:54.048Z,119.43
2018-03-02T23:46:21.605Z,118.97
2018-03-02T23:48:49.162Z,117.13
2018-03-02T23:51:16.751Z,116.43
2018-03-02T23:53:44.517Z,119.70
2018-03-02T23:56:12.074Z,119.00
2018-03-02T23:58:39.654Z,118.03
